createdAt,value
2017-11-21T00:01:26.945Z,24.3
2017-11-21T00:11:27.182Z,26.7
2017-11-21T00:21:25.978Z,23.6
2017-11-21T00:31:26.038Z,19.9
2017-11-21T00:41:26.858Z,20.7
2017-11-21T00:51:27.670Z,19.6
2017-11-21T01:01:26.064Z,23.9
2017-11-21T01:11:26.742Z,20.4
2017-11-21T01:21:26.669Z,17.8
2017-11-21T01:31:26.893Z,18.5
2017-11-21T01:41:25.942Z,15.8
2017-11-21T01:51:27.249Z,15.9
2017-11-21T02:01:27.544Z,17.2
2017-11-21T02:11:25.884Z,16.5
2017-11-21T02:21:26.556Z,14.4
2017-11-21T02:31:25.744Z,17.3
2017-11-21T02:41:33.297Z,16.5
2017-11-21T02:51:25.701Z,16.7
2017-11-21T03:01:27.019Z,17.5
2017-11-21T03:11:28.151Z,17.3
2017-11-21T03:21:25.687Z,15.9
2017-11-21T03:31:27.153Z,17.5
2017-11-21T03:41:28.280Z,17.2
2017-11-21T03:51:26.919Z,16.5
2017-11-21T04:01:26.433Z,17.4
2017-11-21T04:11:27.368Z,18.7
2017-11-21T04:21:26.282Z,18.1
2017-11-21T04:31:26.136Z,18.6
2017-11-21T04:41:28.044Z,18.3
2017-11-21T04:51:27.067Z,19.3
2017-11-21T05:01:27.016Z,19.7
2017-11-21T05:11:26.116Z,18.8
2017-11-21T05:21:29.164Z,19.3
2017-11-21T05:31:25.628Z,21.7
2017-11-21T05:41:25.699Z,20.6
2017-11-21T05:51:26.464Z,19.6
2017-11-21T06:01:27.997Z,18.9
2017-11-21T06:11:29.552Z,19.0
2017-11-21T06:21:29.841Z,17.9
2017-11-21T06:31:25.922Z,18.6
2017-11-21T06:41:28.241Z,18.0
2017-11-21T06:51:27.105Z,18.8
2017-11-21T07:01:28.814Z,17.8
2017-11-21T07:11:26.454Z,19.7
2017-11-21T07:21:25.969Z,20.1
2017-11-21T07:31:27.011Z,18.8
2017-11-21T07:41:26.990Z,21.0
2017-11-21T07:51:26.365Z,18.1
2017-11-21T08:01:25.995Z,18.6
2017-11-21T08:11:26.720Z,17.3
2017-11-21T08:21:26.420Z,16.8
2017-11-21T08:31:26.351Z,15.8
2017-11-21T08:41:25.794Z,16.2
2017-11-21T08:51:26.287Z,16.4
2017-11-21T09:01:25.402Z,17.0
2017-11-21T09:11:25.513Z,16.1
2017-11-21T09:21:26.463Z,16.9
2017-11-21T09:31:27.341Z,15.7
2017-11-21T09:41:27.898Z,16.2
2017-11-21T09:51:26.109Z,16.6
2017-11-21T10:01:26.428Z,17.2
2017-11-21T10:11:26.085Z,17.5
2017-11-21T10:21:25.767Z,17.1
2017-11-21T10:31:26.499Z,17.1
2017-11-21T10:41:25.928Z,15.9
2017-11-21T10:51:27.239Z,18.1
2017-11-21T11:01:26.868Z,15.9
2017-11-21T11:11:25.982Z,16.9
2017-11-21T11:21:26.900Z,17.9
2017-11-21T11:31:27.196Z,17.3
2017-11-21T11:41:27.261Z,16.9
2017-11-21T11:51:28.143Z,17.9
2017-11-21T12:01:28.234Z,16.2
2017-11-21T12:11:28.221Z,13.8
2017-11-21T12:21:26.940Z,14.6
2017-11-21T12:31:26.378Z,14.2
2017-11-21T12:41:25.967Z,14.2
2017-11-21T12:51:26.203Z,14.0
2017-11-21T13:01:26.317Z,15.0
2017-11-21T13:11:26.117Z,15.2
2017-11-21T13:21:25.933Z,16.7
2017-11-21T13:31:26.718Z,20.8
2017-11-21T13:41:25.848Z,20.8
2017-11-21T13:51:26.973Z,24.3
2017-11-21T14:01:26.836Z,25.3
2017-11-21T14:11:26.768Z,22.2
2017-11-21T14:21:28.342Z,23.4
2017-11-21T14:31:27.485Z,23.0
2017-11-21T14:41:26.576Z,21.1
2017-11-21T14:51:26.055Z,23.6
2017-11-21T15:01:26.213Z,23.9
2017-11-21T15:11:27.405Z,24.8
2017-11-21T15:21:26.587Z,26.3
2017-11-21T15:31:26.097Z,25.7
2017-11-21T15:41:27.234Z,24.1
2017-11-21T15:51:26.948Z,24.2
2017-11-21T16:01:27.226Z,26.7
2017-11-21T16:11:26.461Z,27.4
2017-11-21T16:21:26.324Z,26.7
2017-11-21T16:31:26.540Z,28.3
2017-11-21T16:41:27.728Z,27.8
2017-11-21T16:51:25.991Z,30.7
2017-11-21T17:01:26.079Z,31.0
2017-11-21T17:11:27.429Z,31.8
2017-11-21T17:21:26.713Z,20.8
2017-11-21T17:31:28.550Z,16.8
2017-11-21T17:41:26.516Z,15.7
2017-11-21T17:51:26.756Z,14.8
2017-11-21T18:01:26.369Z,14.8
2017-11-21T18:11:28.609Z,16.5
2017-11-21T18:21:26.339Z,17.5
2017-11-21T18:31:25.860Z,16.9
2017-11-21T18:41:28.125Z,19.4
2017-11-21T18:51:26.536Z,20.5
2017-11-21T19:01:26.431Z,21.2
2017-11-21T19:11:25.557Z,22.9
2017-11-21T19:21:26.461Z,22.0
2017-11-21T19:31:25.684Z,23.0
2017-11-21T19:41:26.233Z,21.5
2017-11-21T19:51:27.404Z,23.6
2017-11-21T20:01:25.887Z,26.0
2017-11-21T20:11:26.282Z,30.1
2017-11-21T20:21:26.193Z,30.7
2017-11-21T20:31:27.165Z,31.1
2017-11-21T20:41:26.926Z,29.5
2017-11-21T20:51:26.482Z,29.6
2017-11-21T21:01:26.422Z,28.0
2017-11-21T21:11:25.682Z,26.9
2017-11-21T21:21:28.818Z,30.9
2017-11-21T21:31:26.198Z,34.4
2017-11-21T21:41:26.436Z,36.5
2017-11-21T21:51:27.364Z,33.0
2017-11-21T22:01:27.681Z,31.3
2017-11-21T22:11:26.021Z,34.4
2017-11-21T22:21:27.209Z,39.5
2017-11-21T22:31:27.494Z,38.5
2017-11-21T22:41:26.438Z,34.9
2017-11-21T22:51:26.554Z,31.8
2017-11-21T23:01:26.454Z,30.5
2017-11-21T23:11:26.089Z,29.8
2017-11-21T23:21:25.921Z,29.9
2017-11-21T23:31:26.707Z,29.4
2017-11-21T23:41:26.065Z,32.6
2017-11-21T23:51:27.533Z,30.2
